Jackson Hole Airport
KJAC : now visible

Airfield :











YOU CAN JOIN US ON...

 
LOGIN :

Register | Disclaimer

   EN    FR    IT 

 









Legend :    VFR   Marginal VFR   IFR   Intensive IFR   Very Intensive IFR
Visi :
Ceiling :
>= 8 km
>= 3000ft
5 to 8 km
1000 to 3000 ft
1500m to 5 km
500 to 1000 ft
800 to 1500m
200 to 500 ft
< 800m
< 200 ft
Symbols :   Thunderstorms  Fog  Heavy snow  Heavy precipitations  Wind > 20 kt







- Airport Elevation : 6451 ft
- IATA code : JAC


KJAC - Jackson Hole

CURRENT METAR :
  • 200804Z AUTO 36014KT 10SM -RA FEW020 BKN034 OVC050 02/M01 A2974 RMK AO2 UPB0757E0758RAB0758SNE0757 P0000 FZRANO

EXPIRED METARs :
  • 200756Z AUTO 02011KT 9SM -SN SCT020 BKN026 OVC032 02/M01 A2975 RMK AO2 RAE28SNB28 SLP070 P0000 T00171006 FZRANO
  • 200723Z AUTO 01011KT 10SM -RA BKN022 BKN029 OVC033 02/00 A2975 RMK AO2 P0000 FZRANO
  • 200656Z AUTO 01012G19KT 10SM -RA FEW017 OVC033 02/00 A2976 RMK AO2 RAB05SNE05 SLP076 P0000 T00170000 401001017 FZRANO
  • 200620Z AUTO 01011G20KT 10SM -RA SCT016 BKN030 OVC041 02/00 A2976 RMK AO2 RAB05SNE05 P0000 FZRANO
  • 200556Z AUTO 01012G22KT 9SM -SN FEW014 SCT018 OVC028 02/00 A2977 RMK AO2 SLP077 P0002 60008 T00170000 10056 20011 50010 FZRANO
  • 200540Z AUTO 02014G21KT 6SM -SN BR BKN014 OVC028 01/00 A2977 RMK AO2 P0002 FZRANO
  • 200524Z AUTO 03012KT 4SM -SN BR FEW009 OVC016 01/00 A2977 RMK AO2 P0001 FZRANO

TAF KJAC
Valid from the 20 at 06:00 until the 21 at 06:00 UTC


200535Z 2006/2106 03011KT 4SM -SHSNRA BKN015 OVC030
FM201900 VRB06KT P6SM VCSH SCT040 BKN060
FM210500 01006KT P6SM VCFG SCT003 BKN090 AMD LTD TO CLD VIS AND WIND
KZLC FIR / North America



MET'MAP, your aeronautical weather chart ! - Copyright ORBIFLY December 2007 - Disclaimer

ORBIFLY MET'MAP TEAM :

Programming & Development : Alexandra Zaïnal
Concept & Development : Baudouin d'Aumeries
Co-Development & Prog : Marc-Olivier Méhu
Technical & hardware support : Manuel Goepfert

Contact : metmap@orbifly.com




SOURCES & CREDITS :

   NOAA       Earth
Advisory